sensor_id;sensor_type;location;lat;lon;timestamp;pressure;altitude;pressure_sealevel;temperature;humidity
55761;BME280;41679;51.440;-2.012;2022-08-03T00:00:38;100352.75;;;19.29;100.00
55761;BME280;41679;51.440;-2.012;2022-08-03T00:03:04;100341.22;;;19.27;100.00
55761;BME280;41679;51.440;-2.012;2022-08-03T00:05:30;100349.75;;;19.30;100.00
55761;BME280;41679;51.440;-2.012;2022-08-03T00:07:58;100344.50;;;19.29;100.00
55761;BME280;41679;51.440;-2.012;2022-08-03T00:10:24;100357.72;;;19.32;100.00
55761;BME280;41679;51.440;-2.012;2022-08-03T00:12:49;100347.03;;;19.35;100.00
55761;BME280;41679;51.440;-2.012;2022-08-03T00:15:16;100347.28;;;19.34;100.00
55761;BME280;41679;51.440;-2.012;2022-08-03T00:17:41;100342.91;;;19.33;100.00
55761;BME280;41679;51.440;-2.012;2022-08-03T00:20:07;100340.69;;;19.30;100.00
55761;BME280;41679;51.440;-2.012;2022-08-03T00:22:35;100335.47;;;19.33;100.00
55761;BME280;41679;51.440;-2.012;2022-08-03T00:25:01;100338.78;;;19.35;100.00
55761;BME280;41679;51.440;-2.012;2022-08-03T00:27:27;100334.94;;;19.36;100.00
55761;BME280;41679;51.440;-2.012;2022-08-03T00:29:52;100335.19;;;19.30;100.00
55761;BME280;41679;51.440;-2.012;2022-08-03T00:32:17;100335.97;;;19.25;100.00
55761;BME280;41679;51.440;-2.012;2022-08-03T00:34:43;100326.88;;;19.19;100.00
55761;BME280;41679;51.440;-2.012;2022-08-03T00:37:08;100329.25;;;19.11;100.00
55761;BME280;41679;51.440;-2.012;2022-08-03T00:39:34;100329.22;;;19.06;100.00
55761;BME280;41679;51.440;-2.012;2022-08-03T00:42:04;100319.91;;;19.07;100.00
55761;BME280;41679;51.440;-2.012;2022-08-03T00:44:29;100311.91;;;19.05;100.00
55761;BME280;41679;51.440;-2.012;2022-08-03T00:46:55;100311.91;;;19.05;100.00
55761;BME280;41679;51.440;-2.012;2022-08-03T00:49:20;100313.59;;;19.06;100.00
55761;BME280;41679;51.440;-2.012;2022-08-03T00:51:46;100311.06;;;18.99;100.00
55761;BME280;41679;51.440;-2.012;2022-08-03T00:54:13;100305.47;;;18.89;100.00
55761;BME280;41679;51.440;-2.012;2022-08-03T00:56:39;100294.19;;;18.86;100.00
55761;BME280;41679;51.440;-2.012;2022-08-03T00:59:05;100290.25;;;18.76;100.00
55761;BME280;41679;51.440;-2.012;2022-08-03T01:01:31;100299.53;;;18.70;100.00
55761;BME280;41679;51.440;-2.012;2022-08-03T01:03:56;100300.88;;;18.68;100.00
55761;BME280;41679;51.440;-2.012;2022-08-03T01:06:45;100305.47;;;18.57;100.00
55761;BME280;41679;51.440;-2.012;2022-08-03T01:09:18;100305.47;;;18.57;100.00
55761;BME280;41679;51.440;-2.012;2022-08-03T01:14:36;100288.97;;;18.57;100.00
55761;BME280;41679;51.440;-2.012;2022-08-03T01:20:05;100285.50;;;18.67;100.00
55761;BME280;41679;51.440;-2.012;2022-08-03T01:25:58;100282.84;;;18.77;100.00
55761;BME280;41679;51.440;-2.012;2022-08-03T01:31:30;100286.78;;;18.86;100.00
55761;BME280;41679;51.440;-2.012;2022-08-03T01:34:02;100282.97;;;18.92;100.00
55761;BME280;41679;51.440;-2.012;2022-08-03T01:36:44;100282.63;;;18.84;100.00
55761;BME280;41679;51.440;-2.012;2022-08-03T01:39:14;100275.47;;;18.77;100.00
55761;BME280;41679;51.440;-2.012;2022-08-03T01:42:02;100271.25;;;18.70;100.00
55761;BME280;41679;51.440;-2.012;2022-08-03T01:44:34;100275.63;;;18.71;100.00
55761;BME280;41679;51.440;-2.012;2022-08-03T01:47:02;100272.06;;;18.70;100.00
55761;BME280;41679;51.440;-2.012;2022-08-03T01:49:36;100275.38;;;18.72;100.00
55761;BME280;41679;51.440;-2.012;2022-08-03T01:52:04;100275.38;;;18.72;100.00
55761;BME280;41679;51.440;-2.012;2022-08-03T01:54:35;100260.22;;;18.65;100.00
55761;BME280;41679;51.440;-2.012;2022-08-03T01:57:01;100280.25;;;18.65;100.00
55761;BME280;41679;51.440;-2.012;2022-08-03T01:59:28;100268.75;;;18.68;100.00
55761;BME280;41679;51.440;-2.012;2022-08-03T02:01:55;100277.63;;;18.75;100.00
55761;BME280;41679;51.440;-2.012;2022-08-03T02:04:22;100270.22;;;18.76;100.00
55761;BME280;41679;51.440;-2.012;2022-08-03T02:06:51;100279.59;;;18.80;100.00
55761;BME280;41679;51.440;-2.012;2022-08-03T02:09:19;100275.47;;;18.77;100.00
55761;BME280;41679;51.440;-2.012;2022-08-03T02:11:46;100263.63;;;18.77;100.00
55761;BME280;41679;51.440;-2.012;2022-08-03T02:14:13;100272.78;;;18.88;100.00
55761;BME280;41679;51.440;-2.012;2022-08-03T02:16:39;100276.06;;;18.90;100.00
55761;BME280;41679;51.440;-2.012;2022-08-03T02:19:06;100277.75;;;18.91;100.00
55761;BME280;41679;51.440;-2.012;2022-08-03T02:21:34;100276.41;;;18.93;100.00
55761;BME280;41679;51.440;-2.012;2022-08-03T02:24:01;100278.03;;;18.94;100.00
55761;BME280;41679;51.440;-2.012;2022-08-03T02:26:29;100279.09;;;18.88;100.00
55761;BME280;41679;51.440;-2.012;2022-08-03T02:28:56;100274.16;;;18.85;100.00
55761;BME280;41679;51.440;-2.012;2022-08-03T02:31:28;100271.13;;;18.87;100.00
55761;BME280;41679;51.440;-2.012;2022-08-03T02:33:58;100263.97;;;18.86;100.00
55761;BME280;41679;51.440;-2.012;2022-08-03T02:36:28;100256.00;;;18.84;100.00
55761;BME280;41679;51.440;-2.012;2022-08-03T02:38:57;100261.22;;;18.86;100.00
55761;BME280;41679;51.440;-2.012;2022-08-03T02:41:28;100254.34;;;18.83;100.00
55761;BME280;41679;51.440;-2.012;2022-08-03T02:43:56;100259.31;;;18.86;100.00
55761;BME280;41679;51.440;-2.012;2022-08-03T02:46:27;100267.56;;;18.86;100.00
55761;BME280;41679;51.440;-2.012;2022-08-03T02:48:55;100262.88;;;18.87;100.00
55761;BME280;41679;51.440;-2.012;2022-08-03T02:51:22;100257.38;;;18.87;100.00
55761;BME280;41679;51.440;-2.012;2022-08-03T02:53:49;100265.09;;;18.90;100.00
55761;BME280;41679;51.440;-2.012;2022-08-03T02:56:16;100272.50;;;18.89;100.00
55761;BME280;41679;51.440;-2.012;2022-08-03T02:58:43;100265.09;;;18.90;100.00
55761;BME280;41679;51.440;-2.012;2022-08-03T03:01:10;100265.59;;;18.82;100.00
55761;BME280;41679;51.440;-2.012;2022-08-03T03:03:37;100264.50;;;18.83;100.00
55761;BME280;41679;51.440;-2.012;2022-08-03T03:06:04;100263.09;;;18.75;100.00
55761;BME280;41679;51.440;-2.012;2022-08-03T03:08:31;100265.81;;;18.75;100.00
55761;BME280;41679;51.440;-2.012;2022-08-03T03:10:59;100259.69;;;18.68;100.00
55761;BME280;41679;51.440;-2.012;2022-08-03T03:13:29;100265.63;;;18.54;100.00
55761;BME280;41679;51.440;-2.012;2022-08-03T03:16:01;100261.44;;;18.47;100.00
55761;BME280;41679;51.440;-2.012;2022-08-03T03:18:28;100255.84;;;18.36;100.00
55761;BME280;41679;51.440;-2.012;2022-08-03T03:20:55;100260.19;;;18.32;100.00
55761;BME280;41679;51.440;-2.012;2022-08-03T03:23:22;100256.63;;;18.32;100.00
55761;BME280;41679;51.440;-2.012;2022-08-03T03:25:50;100250.25;;;18.26;100.00
55761;BME280;41679;51.440;-2.012;2022-08-03T03:28:16;100247.41;;;18.16;100.00
55761;BME280;41679;51.440;-2.012;2022-08-03T03:30:42;100244.94;;;18.14;100.00
55761;BME280;41679;51.440;-2.012;2022-08-03T03:33:07;100244.94;;;18.14;100.00
55761;BME280;41679;51.440;-2.012;2022-08-03T03:35:33;100246.59;;;18.15;100.00
55761;BME280;41679;51.440;-2.012;2022-08-03T03:37:59;100250.50;;;18.25;100.00
55761;BME280;41679;51.440;-2.012;2022-08-03T03:40:25;100251.41;;;18.30;100.00
55761;BME280;41679;51.440;-2.012;2022-08-03T03:42:51;100246.84;;;18.41;100.00
55761;BME280;41679;51.440;-2.012;2022-08-03T03:45:17;100251.84;;;18.49;100.00
55761;BME280;41679;51.440;-2.012;2022-08-03T03:47:43;100241.78;;;18.60;100.00
55761;BME280;41679;51.440;-2.012;2022-08-03T03:50:09;100250.31;;;18.64;100.00
55761;BME280;41679;51.440;-2.012;2022-08-03T03:52:35;100242.34;;;18.62;100.00
55761;BME280;41679;51.440;-2.012;2022-08-03T03:55:01;100245.34;;;18.61;100.00
55761;BME280;41679;51.440;-2.012;2022-08-03T03:57:26;100251.38;;;18.57;100.00
55761;BME280;41679;51.440;-2.012;2022-08-03T03:59:52;100236.81;;;18.57;100.00
55761;BME280;41679;51.440;-2.012;2022-08-03T04:02:17;100252.72;;;18.55;100.00
55761;BME280;41679;51.440;-2.012;2022-08-03T04:04:43;100247.78;;;18.57;100.00
55761;BME280;41679;51.440;-2.012;2022-08-03T04:07:26;100250.22;;;18.53;100.00
55761;BME280;41679;51.440;-2.012;2022-08-03T04:10:17;100245.78;;;18.47;100.00
55761;BME280;41679;51.440;-2.012;2022-08-03T04:13:07;100243.88;;;18.48;100.00
55761;BME280;41679;51.440;-2.012;2022-08-03T04:15:36;100242.75;;;18.44;100.00
55761;BME280;41679;51.440;-2.012;2022-08-03T04:18:02;100239.69;;;18.40;100.00
55761;BME280;41679;51.440;-2.012;2022-08-03T04:20:30;100240.19;;;18.37;100.00
55761;BME280;41679;51.440;-2.012;2022-08-03T04:22:57;100237.78;;;18.41;100.00
55761;BME280;41679;51.440;-2.012;2022-08-03T04:25:27;100241.06;;;18.43;100.00
55761;BME280;41679;51.440;-2.012;2022-08-03T04:27:55;100249.06;;;18.44;100.00
55761;BME280;41679;51.440;-2.012;2022-08-03T04:30:25;100246.34;;;18.49;100.00
55761;BME280;41679;51.440;-2.012;2022-08-03T04:32:52;100241.44;;;18.51;100.00
55761;BME280;41679;51.440;-2.012;2022-08-03T04:35:19;100251.63;;;18.56;100.00
55761;BME280;41679;51.440;-2.012;2022-08-03T04:37:47;100250.84;;;18.61;100.00
55761;BME280;41679;51.440;-2.012;2022-08-03T04:40:24;100254.16;;;18.63;100.00
55761;BME280;41679;51.440;-2.012;2022-08-03T04:42:53;100253.09;;;18.69;100.00
55761;BME280;41679;51.440;-2.012;2022-08-03T04:45:20;100259.22;;;18.76;100.00
55761;BME280;41679;51.440;-2.012;2022-08-03T04:47:47;100258.97;;;18.77;100.00
55761;BME280;41679;51.440;-2.012;2022-08-03T04:50:13;100252.63;;;18.77;100.00
55761;BME280;41679;51.440;-2.012;2022-08-03T04:52:39;100248.53;;;18.79;100.00
55761;BME280;41679;51.440;-2.012;2022-08-03T04:55:05;100240.38;;;18.90;100.00
55761;BME280;41679;51.440;-2.012;2022-08-03T04:57:31;100241.22;;;18.90;100.00
55761;BME280;41679;51.440;-2.012;2022-08-03T04:59:56;100244.00;;;18.95;100.00
55761;BME280;41679;51.440;-2.012;2022-08-03T05:02:22;100243.72;;;18.97;100.00
55761;BME280;41679;51.440;-2.012;2022-08-03T05:04:48;100238.00;;;19.04;100.00
55761;BME280;41679;51.440;-2.012;2022-08-03T05:07:14;100248.44;;;19.01;100.00
55761;BME280;41679;51.440;-2.012;2022-08-03T05:09:40;100244.56;;;19.02;100.00
55761;BME280;41679;51.440;-2.012;2022-08-03T05:12:06;100246.28;;;19.09;100.00
55761;BME280;41679;51.440;-2.012;2022-08-03T05:14:36;100250.91;;;19.08;100.00
55761;BME280;41679;51.440;-2.012;2022-08-03T05:17:09;100245.44;;;19.08;100.00
55761;BME280;41679;51.440;-2.012;2022-08-03T05:19:34;100249.53;;;19.06;100.00
55761;BME280;41679;51.440;-2.012;2022-08-03T05:22:00;100251.16;;;19.01;100.00
55761;BME280;41679;51.440;-2.012;2022-08-03T05:24:26;100249.28;;;19.07;100.00
55761;BME280;41679;51.440;-2.012;2022-08-03T05:26:52;100250.88;;;19.03;100.00
55761;BME280;41679;51.440;-2.012;2022-08-03T05:29:17;100254.75;;;19.02;100.00
55761;BME280;41679;51.440;-2.012;2022-08-03T05:31:43;100260.84;;;19.09;100.00
55761;BME280;41679;51.440;-2.012;2022-08-03T05:34:08;100260.03;;;19.09;100.00
55761;BME280;41679;51.440;-2.012;2022-08-03T05:36:34;100252.88;;;19.13;100.00
55761;BME280;41679;51.440;-2.012;2022-08-03T05:38:59;100266.09;;;19.16;100.00
55761;BME280;41679;51.440;-2.012;2022-08-03T05:41:24;100258.72;;;19.21;100.00
55761;BME280;41679;51.440;-2.012;2022-08-03T05:43:51;100264.50;;;19.25;100.00
55761;BME280;41679;51.440;-2.012;2022-08-03T05:46:18;100271.94;;;19.24;100.00
55761;BME280;41679;51.440;-2.012;2022-08-03T05:48:44;100270.00;;;19.25;100.00
55761;BME280;41679;51.440;-2.012;2022-08-03T05:51:10;100279.63;;;19.28;100.00
55761;BME280;41679;51.440;-2.012;2022-08-03T05:53:36;100268.13;;;19.36;100.00
55761;BME280;41679;51.440;-2.012;2022-08-03T05:56:02;100272.81;;;19.35;100.00
55761;BME280;41679;51.440;-2.012;2022-08-03T05:58:28;100279.13;;;19.36;100.00
55761;BME280;41679;51.440;-2.012;2022-08-03T06:00:53;100277.53;;;19.40;100.00
55761;BME280;41679;51.440;-2.012;2022-08-03T06:03:18;100275.59;;;19.40;100.00
55761;BME280;41679;51.440;-2.012;2022-08-03T06:05:44;100271.22;;;19.50;100.00
55761;BME280;41679;51.440;-2.012;2022-08-03T06:08:10;100281.66;;;19.42;100.00
55761;BME280;41679;51.440;-2.012;2022-08-03T06:10:35;100276.69;;;19.44;100.00
55761;BME280;41679;51.440;-2.012;2022-08-03T06:13:01;100272.03;;;19.45;100.00
55761;BME280;41679;51.440;-2.012;2022-08-03T06:15:26;100269.03;;;19.52;100.00
55761;BME280;41679;51.440;-2.012;2022-08-03T06:17:52;100273.69;;;19.46;100.00
55761;BME280;41679;51.440;-2.012;2022-08-03T06:20:19;100281.72;;;19.53;100.00
55761;BME280;41679;51.440;-2.012;2022-08-03T06:22:45;100280.59;;;19.54;100.00
55761;BME280;41679;51.440;-2.012;2022-08-03T06:25:10;100287.75;;;19.55;100.00
55761;BME280;41679;51.440;-2.012;2022-08-03T06:27:36;100290.84;;;19.63;100.00
55761;BME280;41679;51.440;-2.012;2022-08-03T06:30:08;100294.22;;;19.81;100.00
55761;BME280;41679;51.440;-2.012;2022-08-03T06:32:39;100295.34;;;19.85;100.00
55761;BME280;41679;51.440;-2.012;2022-08-03T06:35:06;100302.50;;;19.86;100.00
55761;BME280;41679;51.440;-2.012;2022-08-03T06:37:41;100301.41;;;19.87;100.00
55761;BME280;41679;51.440;-2.012;2022-08-03T06:40:08;100292.28;;;19.76;100.00
55761;BME280;41679;51.440;-2.012;2022-08-03T06:42:33;100282.63;;;19.69;100.00
55761;BME280;41679;51.440;-2.012;2022-08-03T06:44:59;100293.34;;;19.70;100.00
55761;BME280;41679;51.440;-2.012;2022-08-03T06:47:24;100292.28;;;19.71;100.00
55761;BME280;41679;51.440;-2.012;2022-08-03T06:49:49;100291.22;;;19.82;100.00
55761;BME280;41679;51.440;-2.012;2022-08-03T06:52:15;100301.13;;;19.88;100.00
55761;BME280;41679;51.440;-2.012;2022-08-03T06:54:40;100287.72;;;20.13;100.00
55761;BME280;41679;51.440;-2.012;2022-08-03T06:57:06;100293.81;;;20.35;100.00
55761;BME280;41679;51.440;-2.012;2022-08-03T06:59:32;100294.16;;;20.69;100.00
55761;BME280;41679;51.440;-2.012;2022-08-03T07:01:58;100300.78;;;20.79;100.00
55761;BME280;41679;51.440;-2.012;2022-08-03T07:04:23;100302.97;;;20.97;100.00
55761;BME280;41679;51.440;-2.012;2022-08-03T07:06:48;100306.56;;;20.97;100.00
55761;BME280;41679;51.440;-2.012;2022-08-03T07:09:14;100313.69;;;21.04;100.00
55761;BME280;41679;51.440;-2.012;2022-08-03T07:11:39;100307.34;;;21.39;100.00
55761;BME280;41679;51.440;-2.012;2022-08-03T07:14:04;100312.81;;;21.54;100.00
55761;BME280;41679;51.440;-2.012;2022-08-03T07:16:30;100316.97;;;21.47;100.00
55761;BME280;41679;51.440;-2.012;2022-08-03T07:18:55;100311.72;;;21.50;100.00
55761;BME280;41679;51.440;-2.012;2022-08-03T07:21:21;100300.81;;;21.84;100.00
55761;BME280;41679;51.440;-2.012;2022-08-03T07:23:46;100306.25;;;22.05;100.00
55761;BME280;41679;51.440;-2.012;2022-08-03T07:26:13;100315.44;;;21.95;100.00
55761;BME280;41679;51.440;-2.012;2022-08-03T07:28:38;100321.53;;;21.87;100.00
55761;BME280;41679;51.440;-2.012;2022-08-03T07:31:03;100331.28;;;21.64;100.00
55761;BME280;41679;51.440;-2.012;2022-08-03T07:33:29;100329.00;;;21.81;100.00
55761;BME280;41679;51.440;-2.012;2022-08-03T07:35:54;100332.38;;;21.58;100.00
55761;BME280;41679;51.440;-2.012;2022-08-03T07:38:20;100333.16;;;21.74;100.00
55761;BME280;41679;51.440;-2.012;2022-08-03T07:40:45;100326.53;;;21.80;100.00
55761;BME280;41679;51.440;-2.012;2022-08-03T07:43:11;100329.81;;;21.87;100.00
55761;BME280;41679;51.440;-2.012;2022-08-03T07:45:37;100336.72;;;21.84;100.00
55761;BME280;41679;51.440;-2.012;2022-08-03T07:48:03;100335.94;;;21.74;100.00
55761;BME280;41679;51.440;-2.012;2022-08-03T07:50:28;100329.56;;;21.83;100.00
55761;BME280;41679;51.440;-2.012;2022-08-03T07:52:54;100328.44;;;21.79;100.00
55761;BME280;41679;51.440;-2.012;2022-08-03T07:55:23;100330.72;;;21.62;100.00
55761;BME280;41679;51.440;-2.012;2022-08-03T07:58:18;100329.94;;;21.56;100.00
55761;BME280;41679;51.440;-2.012;2022-08-03T08:00:44;100321.09;;;21.59;100.00
55761;BME280;41679;51.440;-2.012;2022-08-03T08:03:09;100321.09;;;21.59;100.00
55761;BME280;41679;51.440;-2.012;2022-08-03T08:05:36;100321.06;;;21.70;100.00
55761;BME280;41679;51.440;-2.012;2022-08-03T08:08:02;100326.44;;;22.00;100.00
55761;BME280;41679;51.440;-2.012;2022-08-03T08:10:28;100330.25;;;22.10;100.00
55761;BME280;41679;51.440;-2.012;2022-08-03T08:12:54;100343.22;;;22.19;100.00
55761;BME280;41679;51.440;-2.012;2022-08-03T08:15:39;100340.09;;;22.31;100.00
55761;BME280;41679;51.440;-2.012;2022-08-03T08:18:04;100337.78;;;22.54;100.00
55761;BME280;41679;51.440;-2.012;2022-08-03T08:20:32;100337.91;;;22.72;100.00
55761;BME280;41679;51.440;-2.012;2022-08-03T08:23:00;100353.94;;;22.70;100.00
55761;BME280;41679;51.440;-2.012;2022-08-03T08:25:25;100347.31;;;22.71;100.00
55761;BME280;41679;51.440;-2.012;2022-08-03T08:27:51;100359.53;;;23.05;100.00
55761;BME280;41679;51.440;-2.012;2022-08-03T08:30:20;100366.75;;;23.01;100.00
55761;BME280;41679;51.440;-2.012;2022-08-03T08:32:47;100360.94;;;23.02;100.00
55761;BME280;41679;51.440;-2.012;2022-08-03T08:35:14;100363.03;;;23.15;100.00
55761;BME280;41679;51.440;-2.012;2022-08-03T08:37:40;100358.56;;;23.20;100.00
55761;BME280;41679;51.440;-2.012;2022-08-03T08:40:06;100364.03;;;22.90;100.00
55761;BME280;41679;51.440;-2.012;2022-08-03T08:42:33;100348.22;;;22.96;100.00
55761;BME280;41679;51.440;-2.012;2022-08-03T08:45:02;100362.34;;;22.94;100.00
55761;BME280;41679;51.440;-2.012;2022-08-03T08:47:30;100351.25;;;23.05;100.00
55761;BME280;41679;51.440;-2.012;2022-08-03T08:49:57;100353.53;;;23.27;100.00
55761;BME280;41679;51.440;-2.012;2022-08-03T08:52:24;100347.94;;;23.32;100.00
55761;BME280;41679;51.440;-2.012;2022-08-03T08:55:04;100357.81;;;23.38;100.00
55761;BME280;41679;51.440;-2.012;2022-08-03T08:57:33;100358.91;;;23.42;100.00
55761;BME280;41679;51.440;-2.012;2022-08-03T09:00:00;100353.19;;;23.33;100.00
55761;BME280;41679;51.440;-2.012;2022-08-03T09:02:29;100360.53;;;23.72;100.00
55761;BME280;41679;51.440;-2.012;2022-08-03T09:04:56;100357.63;;;23.58;100.00
55761;BME280;41679;51.440;-2.012;2022-08-03T09:07:22;100357.75;;;23.72;100.00
55761;BME280;41679;51.440;-2.012;2022-08-03T09:09:47;100356.81;;;24.06;100.00
55761;BME280;41679;51.440;-2.012;2022-08-03T09:12:13;100356.31;;;24.04;100.00
55761;BME280;41679;51.440;-2.012;2022-08-03T09:14:39;100364.97;;;23.97;100.00
55761;BME280;41679;51.440;-2.012;2022-08-03T09:17:04;100360.28;;;23.93;100.00
55761;BME280;41679;51.440;-2.012;2022-08-03T09:19:31;100355.22;;;24.00;100.00
55761;BME280;41679;51.440;-2.012;2022-08-03T09:22:16;100353.41;;;24.33;100.00
55761;BME280;41679;51.440;-2.012;2022-08-03T09:24:56;100352.94;;;24.26;100.00
55761;BME280;41679;51.440;-2.012;2022-08-03T09:27:22;100351.66;;;24.18;100.00
55761;BME280;41679;51.440;-2.012;2022-08-03T09:29:52;100350.25;;;24.21;100.00
55761;BME280;41679;51.440;-2.012;2022-08-03T09:32:23;100349.34;;;24.07;100.00
55761;BME280;41679;51.440;-2.012;2022-08-03T09:34:51;100352.59;;;24.33;100.00
55761;BME280;41679;51.440;-2.012;2022-08-03T09:37:19;100354.94;;;24.44;100.00
55761;BME280;41679;51.440;-2.012;2022-08-03T09:39:45;100359.97;;;24.61;100.00
55761;BME280;41679;51.440;-2.012;2022-08-03T09:44:38;100351.06;;;24.21;100.00
55761;BME280;41679;51.440;-2.012;2022-08-03T09:47:06;100357.78;;;23.96;100.00
55761;BME280;41679;51.440;-2.012;2022-08-03T09:49:32;100358.09;;;23.66;100.00
55761;BME280;41679;51.440;-2.012;2022-08-03T09:52:10;100357.97;;;23.81;100.00
55761;BME280;41679;51.440;-2.012;2022-08-03T09:54:37;100344.53;;;23.93;100.00
55761;BME280;41679;51.440;-2.012;2022-08-03T09:57:02;100350.38;;;24.11;100.00
55761;BME280;41679;51.440;-2.012;2022-08-03T09:59:30;100355.28;;;24.38;100.00
55761;BME280;41679;51.440;-2.012;2022-08-03T10:01:57;100355.91;;;24.73;100.00
55761;BME280;41679;51.440;-2.012;2022-08-03T10:04:24;100359.31;;;25.02;100.00
55761;BME280;41679;51.440;-2.012;2022-08-03T10:07:05;100360.22;;;24.98;100.00
55761;BME280;41679;51.440;-2.012;2022-08-03T10:09:32;100345.97;;;25.04;100.00
55761;BME280;41679;51.440;-2.012;2022-08-03T10:12:06;100350.00;;;25.12;100.00
55761;BME280;41679;51.440;-2.012;2022-08-03T10:14:32;100349.94;;;25.17;100.00
55761;BME280;41679;51.440;-2.012;2022-08-03T10:16:58;100345.47;;;24.83;100.00
55761;BME280;41679;51.440;-2.012;2022-08-03T10:19:23;100346.63;;;24.63;100.00
55761;BME280;41679;51.440;-2.012;2022-08-03T10:21:54;100341.84;;;24.07;100.00
55761;BME280;41679;51.440;-2.012;2022-08-03T10:24:24;100347.75;;;24.00;100.00
55761;BME280;41679;51.440;-2.012;2022-08-03T10:26:52;100343.34;;;23.99;100.00
55761;BME280;41679;51.440;-2.012;2022-08-03T10:29:21;100350.41;;;23.87;100.00
55761;BME280;41679;51.440;-2.012;2022-08-03T10:31:53;100349.41;;;23.77;100.00
55761;BME280;41679;51.440;-2.012;2022-08-03T10:34:25;100348.56;;;23.53;100.00
55761;BME280;41679;51.440;-2.012;2022-08-03T10:36:54;100337.06;;;23.41;100.00
55761;BME280;41679;51.440;-2.012;2022-08-03T10:39:26;100346.41;;;23.21;100.00
55761;BME280;41679;51.440;-2.012;2022-08-03T10:41:53;100336.53;;;22.70;100.00
55761;BME280;41679;51.440;-2.012;2022-08-03T10:44:23;100332.78;;;22.06;100.00
55761;BME280;41679;51.440;-2.012;2022-08-03T10:46:50;100354.63;;;21.92;100.00
55761;BME280;41679;51.440;-2.012;2022-08-03T10:49:18;100350.91;;;21.52;100.00
55761;BME280;41679;51.440;-2.012;2022-08-03T10:51:45;100343.19;;;21.34;100.00
55761;BME280;41679;51.440;-2.012;2022-08-03T10:54:47;100351.22;;;21.15;100.00
55761;BME280;41679;51.440;-2.012;2022-08-03T11:00:16;100353.66;;;21.06;100.00
55761;BME280;41679;51.440;-2.012;2022-08-03T11:05:37;100364.69;;;21.32;100.00
55761;BME280;41679;51.440;-2.012;2022-08-03T11:08:23;100369.13;;;21.48;100.00
55761;BME280;41679;51.440;-2.012;2022-08-03T11:10:51;100363.00;;;21.72;100.00
55761;BME280;41679;51.440;-2.012;2022-08-03T11:13:18;100365.69;;;21.87;100.00
55761;BME280;41679;51.440;-2.012;2022-08-03T11:15:46;100357.19;;;22.38;100.00
55761;BME280;41679;51.440;-2.012;2022-08-03T11:18:13;100372.09;;;22.87;100.00
55761;BME280;41679;51.440;-2.012;2022-08-03T11:20:56;100374.97;;;23.11;100.00
55761;BME280;41679;51.440;-2.012;2022-08-03T11:23:51;100376.41;;;23.03;100.00
55761;BME280;41679;51.440;-2.012;2022-08-03T11:26:17;100386.38;;;22.99;100.00
55761;BME280;41679;51.440;-2.012;2022-08-03T11:28:45;100385.75;;;23.12;100.00
55761;BME280;41679;51.440;-2.012;2022-08-03T11:34:03;100392.19;;;23.03;100.00
55761;BME280;41679;51.440;-2.012;2022-08-03T11:36:29;100391.50;;;23.16;100.00
55761;BME280;41679;51.440;-2.012;2022-08-03T11:39:14;100389.75;;;22.91;100.00
55761;BME280;41679;51.440;-2.012;2022-08-03T11:41:41;100392.56;;;23.20;100.00
55761;BME280;41679;51.440;-2.012;2022-08-03T11:44:06;100384.28;;;23.49;100.00
55761;BME280;41679;51.440;-2.012;2022-08-03T11:46:38;100396.41;;;23.83;100.00
55761;BME280;41679;51.440;-2.012;2022-08-03T11:49:05;100400.19;;;23.92;100.00
55761;BME280;41679;51.440;-2.012;2022-08-03T11:51:32;100406.81;;;23.96;100.00
55761;BME280;41679;51.440;-2.012;2022-08-03T11:54:00;100402.25;;;24.05;100.00
55761;BME280;41679;51.440;-2.012;2022-08-03T11:56:28;100415.69;;;23.93;100.00
55761;BME280;41679;51.440;-2.012;2022-08-03T11:59:07;100409.50;;;23.77;100.00
55761;BME280;41679;51.440;-2.012;2022-08-03T12:01:33;100415.56;;;23.79;100.00
55761;BME280;41679;51.440;-2.012;2022-08-03T12:04:02;100418.34;;;23.79;100.00
55761;BME280;41679;51.440;-2.012;2022-08-03T12:06:29;100417.06;;;23.66;100.00
55761;BME280;41679;51.440;-2.012;2022-08-03T12:08:54;100413.41;;;23.71;100.00
55761;BME280;41679;51.440;-2.012;2022-08-03T12:11:19;100418.78;;;23.62;100.00
55761;BME280;41679;51.440;-2.012;2022-08-03T12:13:47;100432.28;;;23.34;100.00
55761;BME280;41679;51.440;-2.012;2022-08-03T12:16:19;100424.84;;;22.90;100.00
55761;BME280;41679;51.440;-2.012;2022-08-03T12:18:53;100425.75;;;22.81;100.00
55761;BME280;41679;51.440;-2.012;2022-08-03T12:21:18;100412.94;;;22.50;100.00
55761;BME280;41679;51.440;-2.012;2022-08-03T12:23:48;100427.59;;;22.51;100.00
55761;BME280;41679;51.440;-2.012;2022-08-03T12:26:14;100420.06;;;22.62;100.00
55761;BME280;41679;51.440;-2.012;2022-08-03T12:28:46;100424.69;;;22.77;100.00
55761;BME280;41679;51.440;-2.012;2022-08-03T12:31:11;100427.63;;;22.90;100.00
55761;BME280;41679;51.440;-2.012;2022-08-03T12:36:22;100432.91;;;22.87;100.00
55761;BME280;41679;51.440;-2.012;2022-08-03T12:38:59;100431.75;;;22.93;100.00
55761;BME280;41679;51.440;-2.012;2022-08-03T12:43:55;100430.25;;;23.16;100.00
55761;BME280;41679;51.440;-2.012;2022-08-03T12:46:20;100437.41;;;23.17;100.00
55761;BME280;41679;51.440;-2.012;2022-08-03T12:49:09;100439.00;;;22.89;100.00
55761;BME280;41679;51.440;-2.012;2022-08-03T12:51:42;100439.34;;;22.72;100.00
55761;BME280;41679;51.440;-2.012;2022-08-03T12:54:25;100429.19;;;22.62;100.00
55761;BME280;41679;51.440;-2.012;2022-08-03T12:57:11;100438.72;;;22.36;100.00
55761;BME280;41679;51.440;-2.012;2022-08-03T12:59:39;100442.88;;;22.28;100.00
55761;BME280;41679;51.440;-2.012;2022-08-03T13:02:14;100443.72;;;22.23;100.00
55761;BME280;41679;51.440;-2.012;2022-08-03T13:04:43;100444.31;;;22.05;100.00